sensor_id;sensor_type;location;lat;lon;timestamp;P1;durP1;ratioP1;P2;durP2;ratioP2
5900;SDS011;2976;49.764;9.796;2022-12-07T00:01:06;20.17;;;10.80;;
5900;SDS011;2976;49.764;9.796;2022-12-07T00:03:37;18.50;;;9.50;;
5900;SDS011;2976;49.764;9.796;2022-12-07T00:06:04;21.30;;;10.33;;
5900;SDS011;2976;49.764;9.796;2022-12-07T00:08:31;17.73;;;9.33;;
5900;SDS011;2976;49.764;9.796;2022-12-07T00:11:01;19.60;;;10.83;;
5900;SDS011;2976;49.764;9.796;2022-12-07T00:13:29;19.37;;;10.30;;
5900;SDS011;2976;49.764;9.796;2022-12-07T00:15:59;21.50;;;10.60;;
5900;SDS011;2976;49.764;9.796;2022-12-07T00:18:26;19.67;;;10.40;;
5900;SDS011;2976;49.764;9.796;2022-12-07T00:20:52;17.40;;;9.60;;
5900;SDS011;2976;49.764;9.796;2022-12-07T00:23:18;21.13;;;10.80;;
5900;SDS011;2976;49.764;9.796;2022-12-07T00:25:43;26.90;;;11.57;;
5900;SDS011;2976;49.764;9.796;2022-12-07T00:28:09;19.37;;;10.17;;
5900;SDS011;2976;49.764;9.796;2022-12-07T00:30:35;16.63;;;10.30;;
5900;SDS011;2976;49.764;9.796;2022-12-07T00:33:01;19.27;;;11.20;;
5900;SDS011;2976;49.764;9.796;2022-12-07T00:35:26;21.17;;;11.33;;
5900;SDS011;2976;49.764;9.796;2022-12-07T00:37:52;25.40;;;11.47;;
5900;SDS011;2976;49.764;9.796;2022-12-07T00:40:17;19.77;;;11.67;;
5900;SDS011;2976;49.764;9.796;2022-12-07T00:42:43;17.80;;;11.33;;
5900;SDS011;2976;49.764;9.796;2022-12-07T00:45:08;18.57;;;10.00;;
5900;SDS011;2976;49.764;9.796;2022-12-07T00:47:34;21.70;;;10.47;;
5900;SDS011;2976;49.764;9.796;2022-12-07T00:50:00;23.27;;;10.90;;
5900;SDS011;2976;49.764;9.796;2022-12-07T00:52:25;18.47;;;10.30;;
5900;SDS011;2976;49.764;9.796;2022-12-07T00:54:51;21.60;;;11.33;;
5900;SDS011;2976;49.764;9.796;2022-12-07T00:57:16;19.00;;;10.57;;
5900;SDS011;2976;49.764;9.796;2022-12-07T00:59:42;22.40;;;10.60;;
5900;SDS011;2976;49.764;9.796;2022-12-07T01:02:08;20.50;;;10.90;;
5900;SDS011;2976;49.764;9.796;2022-12-07T01:04:33;17.53;;;9.77;;
5900;SDS011;2976;49.764;9.796;2022-12-07T01:06:59;27.70;;;11.03;;
5900;SDS011;2976;49.764;9.796;2022-12-07T01:09:25;19.33;;;9.87;;
5900;SDS011;2976;49.764;9.796;2022-12-07T01:11:50;21.40;;;10.77;;
5900;SDS011;2976;49.764;9.796;2022-12-07T01:14:16;15.70;;;9.37;;
5900;SDS011;2976;49.764;9.796;2022-12-07T01:16:43;19.13;;;9.90;;
5900;SDS011;2976;49.764;9.796;2022-12-07T01:19:08;17.73;;;9.80;;
5900;SDS011;2976;49.764;9.796;2022-12-07T01:21:34;19.43;;;9.73;;
5900;SDS011;2976;49.764;9.796;2022-12-07T01:24:03;17.93;;;10.03;;
5900;SDS011;2976;49.764;9.796;2022-12-07T01:26:30;15.80;;;9.80;;
5900;SDS011;2976;49.764;9.796;2022-12-07T01:28:56;19.00;;;10.10;;
5900;SDS011;2976;49.764;9.796;2022-12-07T01:31:24;18.53;;;10.50;;
5900;SDS011;2976;49.764;9.796;2022-12-07T01:33:51;20.83;;;8.53;;
5900;SDS011;2976;49.764;9.796;2022-12-07T01:36:21;23.00;;;11.37;;
5900;SDS011;2976;49.764;9.796;2022-12-07T01:39:00;22.43;;;10.37;;
5900;SDS011;2976;49.764;9.796;2022-12-07T01:41:28;17.70;;;8.40;;
5900;SDS011;2976;49.764;9.796;2022-12-07T01:44:07;18.47;;;10.90;;
5900;SDS011;2976;49.764;9.796;2022-12-07T01:46:34;20.03;;;9.40;;
5900;SDS011;2976;49.764;9.796;2022-12-07T01:49:00;18.97;;;10.60;;
5900;SDS011;2976;49.764;9.796;2022-12-07T01:51:28;16.50;;;9.27;;
5900;SDS011;2976;49.764;9.796;2022-12-07T01:53:54;17.27;;;8.87;;
5900;SDS011;2976;49.764;9.796;2022-12-07T01:56:22;21.83;;;9.90;;
5900;SDS011;2976;49.764;9.796;2022-12-07T01:58:50;22.97;;;9.87;;
5900;SDS011;2976;49.764;9.796;2022-12-07T02:01:16;21.50;;;9.57;;
5900;SDS011;2976;49.764;9.796;2022-12-07T02:03:43;23.70;;;10.10;;
5900;SDS011;2976;49.764;9.796;2022-12-07T02:06:10;19.23;;;9.83;;
5900;SDS011;2976;49.764;9.796;2022-12-07T02:08:38;19.50;;;10.20;;
5900;SDS011;2976;49.764;9.796;2022-12-07T02:11:04;21.20;;;9.60;;
5900;SDS011;2976;49.764;9.796;2022-12-07T02:13:32;17.37;;;9.37;;
5900;SDS011;2976;49.764;9.796;2022-12-07T02:16:09;18.40;;;9.37;;
5900;SDS011;2976;49.764;9.796;2022-12-07T02:21:29;20.03;;;9.60;;
5900;SDS011;2976;49.764;9.796;2022-12-07T02:29:20;20.90;;;10.93;;
5900;SDS011;2976;49.764;9.796;2022-12-07T02:34:46;21.67;;;11.07;;
5900;SDS011;2976;49.764;9.796;2022-12-07T02:40:12;25.13;;;12.37;;
5900;SDS011;2976;49.764;9.796;2022-12-07T02:42:45;25.63;;;11.63;;
5900;SDS011;2976;49.764;9.796;2022-12-07T02:45:15;30.87;;;12.70;;
5900;SDS011;2976;49.764;9.796;2022-12-07T02:47:45;23.10;;;11.40;;
5900;SDS011;2976;49.764;9.796;2022-12-07T02:50:17;28.60;;;13.93;;
5900;SDS011;2976;49.764;9.796;2022-12-07T02:52:44;25.50;;;11.90;;
5900;SDS011;2976;49.764;9.796;2022-12-07T02:55:10;24.67;;;12.30;;
5900;SDS011;2976;49.764;9.796;2022-12-07T02:57:43;21.60;;;11.73;;
5900;SDS011;2976;49.764;9.796;2022-12-07T03:00:16;22.40;;;12.43;;
5900;SDS011;2976;49.764;9.796;2022-12-07T03:05:21;23.60;;;13.03;;
5900;SDS011;2976;49.764;9.796;2022-12-07T03:10:58;24.80;;;11.93;;
5900;SDS011;2976;49.764;9.796;2022-12-07T03:16:22;23.60;;;12.60;;
5900;SDS011;2976;49.764;9.796;2022-12-07T03:21:34;24.80;;;11.20;;
5900;SDS011;2976;49.764;9.796;2022-12-07T03:24:04;23.40;;;11.50;;
5900;SDS011;2976;49.764;9.796;2022-12-07T03:26:37;25.83;;;12.47;;
5900;SDS011;2976;49.764;9.796;2022-12-07T03:29:07;28.03;;;12.53;;
5900;SDS011;2976;49.764;9.796;2022-12-07T03:31:47;22.50;;;12.17;;
5900;SDS011;2976;49.764;9.796;2022-12-07T03:34:39;28.90;;;13.57;;
5900;SDS011;2976;49.764;9.796;2022-12-07T03:37:17;24.97;;;13.07;;
5900;SDS011;2976;49.764;9.796;2022-12-07T03:42:27;27.13;;;13.60;;
5900;SDS011;2976;49.764;9.796;2022-12-07T03:44:53;27.30;;;12.57;;
5900;SDS011;2976;49.764;9.796;2022-12-07T03:47:41;23.93;;;11.83;;
5900;SDS011;2976;49.764;9.796;2022-12-07T03:50:17;26.93;;;12.37;;
5900;SDS011;2976;49.764;9.796;2022-12-07T03:53:02;22.70;;;11.60;;
5900;SDS011;2976;49.764;9.796;2022-12-07T03:55:41;32.50;;;12.20;;
5900;SDS011;2976;49.764;9.796;2022-12-07T03:58:10;24.03;;;12.30;;
5900;SDS011;2976;49.764;9.796;2022-12-07T04:00:41;26.03;;;12.47;;
5900;SDS011;2976;49.764;9.796;2022-12-07T04:03:08;24.33;;;12.27;;
5900;SDS011;2976;49.764;9.796;2022-12-07T04:05:34;23.27;;;12.13;;
5900;SDS011;2976;49.764;9.796;2022-12-07T04:08:00;24.27;;;13.00;;
5900;SDS011;2976;49.764;9.796;2022-12-07T04:10:26;21.80;;;11.93;;
5900;SDS011;2976;49.764;9.796;2022-12-07T04:12:51;23.17;;;11.17;;
5900;SDS011;2976;49.764;9.796;2022-12-07T04:15:17;23.57;;;11.43;;
5900;SDS011;2976;49.764;9.796;2022-12-07T04:17:43;24.90;;;12.10;;
5900;SDS011;2976;49.764;9.796;2022-12-07T04:20:08;19.90;;;10.80;;
5900;SDS011;2976;49.764;9.796;2022-12-07T04:22:34;26.57;;;13.00;;
5900;SDS011;2976;49.764;9.796;2022-12-07T04:25:00;21.57;;;10.77;;
5900;SDS011;2976;49.764;9.796;2022-12-07T04:27:26;21.40;;;10.90;;
5900;SDS011;2976;49.764;9.796;2022-12-07T04:29:51;21.20;;;11.60;;
5900;SDS011;2976;49.764;9.796;2022-12-07T04:32:17;20.60;;;11.13;;
5900;SDS011;2976;49.764;9.796;2022-12-07T04:34:42;18.40;;;10.40;;
5900;SDS011;2976;49.764;9.796;2022-12-07T04:37:08;18.97;;;11.60;;
5900;SDS011;2976;49.764;9.796;2022-12-07T04:39:33;23.83;;;11.27;;
5900;SDS011;2976;49.764;9.796;2022-12-07T04:41:59;22.20;;;11.40;;
5900;SDS011;2976;49.764;9.796;2022-12-07T04:44:26;25.17;;;11.17;;
5900;SDS011;2976;49.764;9.796;2022-12-07T04:46:53;23.90;;;10.37;;
5900;SDS011;2976;49.764;9.796;2022-12-07T04:49:20;22.23;;;11.63;;
5900;SDS011;2976;49.764;9.796;2022-12-07T04:51:46;18.83;;;9.40;;
5900;SDS011;2976;49.764;9.796;2022-12-07T04:54:12;17.73;;;9.83;;
5900;SDS011;2976;49.764;9.796;2022-12-07T04:56:39;16.50;;;9.37;;
5900;SDS011;2976;49.764;9.796;2022-12-07T04:59:05;21.73;;;11.00;;
5900;SDS011;2976;49.764;9.796;2022-12-07T05:01:31;22.43;;;9.30;;
5900;SDS011;2976;49.764;9.796;2022-12-07T05:03:57;18.73;;;9.83;;
5900;SDS011;2976;49.764;9.796;2022-12-07T05:06:23;19.10;;;9.57;;
5900;SDS011;2976;49.764;9.796;2022-12-07T05:08:49;18.03;;;9.60;;
5900;SDS011;2976;49.764;9.796;2022-12-07T05:11:14;17.70;;;9.93;;
5900;SDS011;2976;49.764;9.796;2022-12-07T05:13:58;15.43;;;9.03;;
5900;SDS011;2976;49.764;9.796;2022-12-07T05:16:24;21.70;;;10.93;;
5900;SDS011;2976;49.764;9.796;2022-12-07T05:18:50;18.87;;;10.13;;
5900;SDS011;2976;49.764;9.796;2022-12-07T05:21:15;20.27;;;9.90;;
5900;SDS011;2976;49.764;9.796;2022-12-07T05:23:41;23.60;;;11.20;;
5900;SDS011;2976;49.764;9.796;2022-12-07T05:26:06;21.37;;;11.60;;
5900;SDS011;2976;49.764;9.796;2022-12-07T05:28:32;19.70;;;10.90;;
5900;SDS011;2976;49.764;9.796;2022-12-07T05:30:57;20.40;;;10.10;;
5900;SDS011;2976;49.764;9.796;2022-12-07T05:33:23;21.63;;;12.10;;
5900;SDS011;2976;49.764;9.796;2022-12-07T05:35:48;18.23;;;9.67;;
5900;SDS011;2976;49.764;9.796;2022-12-07T05:38:14;17.80;;;10.77;;
5900;SDS011;2976;49.764;9.796;2022-12-07T05:40:39;23.17;;;10.00;;
5900;SDS011;2976;49.764;9.796;2022-12-07T05:43:05;17.27;;;9.43;;
5900;SDS011;2976;49.764;9.796;2022-12-07T05:45:31;16.33;;;9.23;;
5900;SDS011;2976;49.764;9.796;2022-12-07T05:47:56;21.33;;;10.27;;
5900;SDS011;2976;49.764;9.796;2022-12-07T05:50:22;22.43;;;9.37;;
5900;SDS011;2976;49.764;9.796;2022-12-07T05:52:47;24.20;;;10.80;;
5900;SDS011;2976;49.764;9.796;2022-12-07T05:55:13;22.17;;;10.67;;
5900;SDS011;2976;49.764;9.796;2022-12-07T05:57:38;25.23;;;11.20;;
5900;SDS011;2976;49.764;9.796;2022-12-07T06:00:04;24.30;;;11.10;;
5900;SDS011;2976;49.764;9.796;2022-12-07T06:02:30;19.00;;;9.97;;
5900;SDS011;2976;49.764;9.796;2022-12-07T06:04:56;18.70;;;10.40;;
5900;SDS011;2976;49.764;9.796;2022-12-07T06:07:21;22.87;;;10.40;;
5900;SDS011;2976;49.764;9.796;2022-12-07T06:09:47;31.10;;;11.63;;
5900;SDS011;2976;49.764;9.796;2022-12-07T06:12:12;24.30;;;11.90;;
5900;SDS011;2976;49.764;9.796;2022-12-07T06:14:57;25.43;;;11.03;;
5900;SDS011;2976;49.764;9.796;2022-12-07T06:17:23;21.87;;;12.33;;
5900;SDS011;2976;49.764;9.796;2022-12-07T06:19:49;23.73;;;12.13;;
5900;SDS011;2976;49.764;9.796;2022-12-07T06:22:14;27.37;;;12.57;;
5900;SDS011;2976;49.764;9.796;2022-12-07T06:24:41;26.70;;;12.00;;
5900;SDS011;2976;49.764;9.796;2022-12-07T06:27:07;24.60;;;12.10;;
5900;SDS011;2976;49.764;9.796;2022-12-07T06:29:33;29.17;;;11.97;;
5900;SDS011;2976;49.764;9.796;2022-12-07T06:31:58;27.20;;;10.77;;
5900;SDS011;2976;49.764;9.796;2022-12-07T06:34:24;20.83;;;10.53;;
5900;SDS011;2976;49.764;9.796;2022-12-07T06:36:51;22.93;;;12.60;;
5900;SDS011;2976;49.764;9.796;2022-12-07T06:39:19;25.43;;;12.23;;
5900;SDS011;2976;49.764;9.796;2022-12-07T06:41:45;26.40;;;11.67;;
5900;SDS011;2976;49.764;9.796;2022-12-07T06:44:11;19.30;;;11.13;;
5900;SDS011;2976;49.764;9.796;2022-12-07T06:46:37;24.10;;;10.90;;
5900;SDS011;2976;49.764;9.796;2022-12-07T06:49:03;20.40;;;9.93;;
5900;SDS011;2976;49.764;9.796;2022-12-07T06:51:29;24.90;;;11.57;;
5900;SDS011;2976;49.764;9.796;2022-12-07T06:53:55;24.03;;;10.60;;
5900;SDS011;2976;49.764;9.796;2022-12-07T06:56:21;21.87;;;11.13;;
5900;SDS011;2976;49.764;9.796;2022-12-07T06:58:47;21.20;;;10.33;;
5900;SDS011;2976;49.764;9.796;2022-12-07T07:01:14;22.93;;;11.53;;
5900;SDS011;2976;49.764;9.796;2022-12-07T07:03:41;24.67;;;12.03;;
5900;SDS011;2976;49.764;9.796;2022-12-07T07:06:08;27.07;;;11.10;;
5900;SDS011;2976;49.764;9.796;2022-12-07T07:08:34;18.20;;;9.70;;
5900;SDS011;2976;49.764;9.796;2022-12-07T07:11:01;16.53;;;9.10;;
5900;SDS011;2976;49.764;9.796;2022-12-07T07:13:27;16.23;;;9.13;;
5900;SDS011;2976;49.764;9.796;2022-12-07T07:15:53;18.03;;;9.43;;
5900;SDS011;2976;49.764;9.796;2022-12-07T07:18:19;19.90;;;9.70;;
5900;SDS011;2976;49.764;9.796;2022-12-07T07:20:44;18.87;;;10.00;;
5900;SDS011;2976;49.764;9.796;2022-12-07T07:23:10;19.53;;;10.47;;
5900;SDS011;2976;49.764;9.796;2022-12-07T07:25:35;22.93;;;10.93;;
5900;SDS011;2976;49.764;9.796;2022-12-07T07:28:01;20.13;;;9.80;;
5900;SDS011;2976;49.764;9.796;2022-12-07T07:30:27;25.07;;;12.23;;
5900;SDS011;2976;49.764;9.796;2022-12-07T07:32:59;25.97;;;10.70;;
5900;SDS011;2976;49.764;9.796;2022-12-07T07:35:26;20.57;;;9.77;;
5900;SDS011;2976;49.764;9.796;2022-12-07T07:37:52;20.03;;;10.13;;
5900;SDS011;2976;49.764;9.796;2022-12-07T07:40:18;21.50;;;10.90;;
5900;SDS011;2976;49.764;9.796;2022-12-07T07:42:46;20.17;;;11.10;;
5900;SDS011;2976;49.764;9.796;2022-12-07T07:45:15;26.00;;;12.07;;
5900;SDS011;2976;49.764;9.796;2022-12-07T07:47:41;23.90;;;11.47;;
5900;SDS011;2976;49.764;9.796;2022-12-07T07:50:07;18.23;;;10.43;;
5900;SDS011;2976;49.764;9.796;2022-12-07T07:52:33;19.83;;;10.07;;
5900;SDS011;2976;49.764;9.796;2022-12-07T07:54:58;22.07;;;10.40;;
5900;SDS011;2976;49.764;9.796;2022-12-07T07:57:24;23.47;;;10.63;;
5900;SDS011;2976;49.764;9.796;2022-12-07T07:59:49;22.27;;;11.60;;
5900;SDS011;2976;49.764;9.796;2022-12-07T08:02:16;20.37;;;10.10;;
5900;SDS011;2976;49.764;9.796;2022-12-07T08:04:43;21.77;;;11.03;;
5900;SDS011;2976;49.764;9.796;2022-12-07T08:07:09;30.77;;;12.60;;
5900;SDS011;2976;49.764;9.796;2022-12-07T08:09:35;18.43;;;10.47;;
5900;SDS011;2976;49.764;9.796;2022-12-07T08:12:01;23.40;;;12.27;;
5900;SDS011;2976;49.764;9.796;2022-12-07T08:14:27;21.80;;;10.23;;
5900;SDS011;2976;49.764;9.796;2022-12-07T08:16:53;20.97;;;10.10;;
5900;SDS011;2976;49.764;9.796;2022-12-07T08:19:19;18.77;;;9.80;;
5900;SDS011;2976;49.764;9.796;2022-12-07T08:21:44;26.47;;;10.70;;
5900;SDS011;2976;49.764;9.796;2022-12-07T08:24:10;18.20;;;11.00;;
5900;SDS011;2976;49.764;9.796;2022-12-07T08:26:36;22.43;;;11.67;;
5900;SDS011;2976;49.764;9.796;2022-12-07T08:29:02;24.00;;;11.50;;
5900;SDS011;2976;49.764;9.796;2022-12-07T08:31:28;18.00;;;9.67;;
5900;SDS011;2976;49.764;9.796;2022-12-07T08:33:53;22.50;;;10.37;;
5900;SDS011;2976;49.764;9.796;2022-12-07T08:36:19;21.50;;;10.10;;
5900;SDS011;2976;49.764;9.796;2022-12-07T08:38:46;16.00;;;8.53;;
5900;SDS011;2976;49.764;9.796;2022-12-07T08:41:12;16.37;;;9.73;;
5900;SDS011;2976;49.764;9.796;2022-12-07T08:43:37;22.03;;;9.40;;
5900;SDS011;2976;49.764;9.796;2022-12-07T08:46:08;22.60;;;9.77;;
5900;SDS011;2976;49.764;9.796;2022-12-07T08:48:50;19.87;;;10.87;;
5900;SDS011;2976;49.764;9.796;2022-12-07T08:51:20;18.70;;;9.77;;
5900;SDS011;2976;49.764;9.796;2022-12-07T08:53:47;16.50;;;9.53;;
5900;SDS011;2976;49.764;9.796;2022-12-07T08:56:14;17.53;;;10.20;;
5900;SDS011;2976;49.764;9.796;2022-12-07T08:58:40;18.20;;;9.83;;
5900;SDS011;2976;49.764;9.796;2022-12-07T09:01:06;17.57;;;9.03;;
5900;SDS011;2976;49.764;9.796;2022-12-07T09:03:31;16.60;;;9.63;;
5900;SDS011;2976;49.764;9.796;2022-12-07T09:05:57;19.83;;;10.37;;
5900;SDS011;2976;49.764;9.796;2022-12-07T09:08:26;19.03;;;11.00;;
5900;SDS011;2976;49.764;9.796;2022-12-07T09:10:57;18.67;;;9.50;;
5900;SDS011;2976;49.764;9.796;2022-12-07T09:13:22;18.77;;;10.03;;
5900;SDS011;2976;49.764;9.796;2022-12-07T09:15:48;18.10;;;9.20;;
5900;SDS011;2976;49.764;9.796;2022-12-07T09:18:13;15.30;;;9.00;;
5900;SDS011;2976;49.764;9.796;2022-12-07T09:20:39;21.37;;;9.30;;
5900;SDS011;2976;49.764;9.796;2022-12-07T09:23:05;13.60;;;8.93;;
5900;SDS011;2976;49.764;9.796;2022-12-07T09:25:32;13.57;;;9.27;;
5900;SDS011;2976;49.764;9.796;2022-12-07T09:27:58;13.93;;;9.80;;
5900;SDS011;2976;49.764;9.796;2022-12-07T09:30:24;18.63;;;8.57;;
5900;SDS011;2976;49.764;9.796;2022-12-07T09:32:55;15.30;;;7.90;;
5900;SDS011;2976;49.764;9.796;2022-12-07T09:35:21;19.20;;;8.73;;
5900;SDS011;2976;49.764;9.796;2022-12-07T09:37:48;15.67;;;8.83;;
5900;SDS011;2976;49.764;9.796;2022-12-07T09:40:15;16.57;;;9.03;;
5900;SDS011;2976;49.764;9.796;2022-12-07T09:42:44;15.20;;;9.03;;
5900;SDS011;2976;49.764;9.796;2022-12-07T09:45:14;12.20;;;7.53;;
5900;SDS011;2976;49.764;9.796;2022-12-07T09:47:57;16.30;;;8.70;;
5900;SDS011;2976;49.764;9.796;2022-12-07T09:50:24;16.00;;;9.83;;
5900;SDS011;2976;49.764;9.796;2022-12-07T09:52:52;12.43;;;8.30;;
5900;SDS011;2976;49.764;9.796;2022-12-07T09:55:24;15.10;;;8.47;;
5900;SDS011;2976;49.764;9.796;2022-12-07T09:57:52;21.20;;;7.90;;
5900;SDS011;2976;49.764;9.796;2022-12-07T10:00:19;10.23;;;7.63;;
5900;SDS011;2976;49.764;9.796;2022-12-07T10:02:47;11.23;;;7.63;;
5900;SDS011;2976;49.764;9.796;2022-12-07T10:05:19;12.00;;;8.60;;
5900;SDS011;2976;49.764;9.796;2022-12-07T10:07:59;14.00;;;7.50;;
5900;SDS011;2976;49.764;9.796;2022-12-07T10:10:32;12.33;;;8.40;;
5900;SDS011;2976;49.764;9.796;2022-12-07T10:13:06;12.40;;;7.80;;
5900;SDS011;2976;49.764;9.796;2022-12-07T10:18:21;10.00;;;6.40;;
5900;SDS011;2976;49.764;9.796;2022-12-07T10:26:36;11.63;;;7.50;;
5900;SDS011;2976;49.764;9.796;2022-12-07T10:29:19;10.50;;;6.50;;
5900;SDS011;2976;49.764;9.796;2022-12-07T10:31:46;12.93;;;7.80;;
5900;SDS011;2976;49.764;9.796;2022-12-07T10:34:43;10.17;;;6.97;;
5900;SDS011;2976;49.764;9.796;2022-12-07T10:39:51;10.60;;;6.70;;
5900;SDS011;2976;49.764;9.796;2022-12-07T10:42:27;8.87;;;6.20;;
5900;SDS011;2976;49.764;9.796;2022-12-07T10:50:58;12.63;;;7.03;;
5900;SDS011;2976;49.764;9.796;2022-12-07T10:53:51;12.13;;;6.80;;
5900;SDS011;2976;49.764;9.796;2022-12-07T10:56:35;14.10;;;6.80;;
5900;SDS011;2976;49.764;9.796;2022-12-07T11:07:34;12.47;;;6.90;;
5900;SDS011;2976;49.764;9.796;2022-12-07T11:15:55;9.80;;;6.40;;
5900;SDS011;2976;49.764;9.796;2022-12-07T11:18:44;10.50;;;6.33;;
5900;SDS011;2976;49.764;9.796;2022-12-07T11:21:23;7.63;;;5.80;;
5900;SDS011;2976;49.764;9.796;2022-12-07T11:24:01;10.23;;;6.20;;
5900;SDS011;2976;49.764;9.796;2022-12-07T11:32:26;13.07;;;8.07;;
5900;SDS011;2976;49.764;9.796;2022-12-07T11:35:05;11.03;;;7.20;;
5900;SDS011;2976;49.764;9.796;2022-12-07T11:37:39;15.20;;;7.40;;
5900;SDS011;2976;49.764;9.796;2022-12-07T11:40:14;10.07;;;7.33;;
5900;SDS011;2976;49.764;9.796;2022-12-07T11:45:35;11.40;;;6.93;;
5900;SDS011;2976;49.764;9.796;2022-12-07T11:48:06;11.00;;;6.20;;
5900;SDS011;2976;49.764;9.796;2022-12-07T11:50:56;8.20;;;6.20;;
5900;SDS011;2976;49.764;9.796;2022-12-07T11:53:25;11.00;;;6.07;;
5900;SDS011;2976;49.764;9.796;2022-12-07T11:56:14;7.63;;;6.03;;
5900;SDS011;2976;49.764;9.796;2022-12-07T11:58:48;8.83;;;6.30;;
5900;SDS011;2976;49.764;9.796;2022-12-07T12:01:42;9.53;;;6.10;;
5900;SDS011;2976;49.764;9.796;2022-12-07T12:04:21;7.30;;;6.07;;
5900;SDS011;2976;49.764;9.796;2022-12-07T12:07:05;7.00;;;4.60;;
5900;SDS011;2976;49.764;9.796;2022-12-07T12:09:36;8.10;;;4.63;;
5900;SDS011;2976;49.764;9.796;2022-12-07T12:22:26;8.93;;;4.60;;
5900;SDS011;2976;49.764;9.796;2022-12-07T12:25:06;7.30;;;5.30;;
5900;SDS011;2976;49.764;9.796;2022-12-07T12:27:42;8.33;;;5.03;;
5900;SDS011;2976;49.764;9.796;2022-12-07T12:33:06;5.97;;;4.23;;
5900;SDS011;2976;49.764;9.796;2022-12-07T12:35:40;7.80;;;4.97;;
5900;SDS011;2976;49.764;9.796;2022-12-07T12:38:26;11.03;;;6.80;;
5900;SDS011;2976;49.764;9.796;2022-12-07T12:40:58;5.73;;;4.37;;
5900;SDS011;2976;49.764;9.796;2022-12-07T12:43:58;6.40;;;4.13;;
5900;SDS011;2976;49.764;9.796;2022-12-07T12:54:18;9.60;;;4.70;;
5900;SDS011;2976;49.764;9.796;2022-12-07T12:56:47;5.10;;;3.90;;
5900;SDS011;2976;49.764;9.796;2022-12-07T13:07:47;7.57;;;4.43;;
5900;SDS011;2976;49.764;9.796;2022-12-07T13:20:47;5.70;;;3.30;;
5900;SDS011;2976;49.764;9.796;2022-12-07T13:37:01;6.47;;;4.73;;
5900;SDS011;2976;49.764;9.796;2022-12-07T13:39:46;4.83;;;4.33;;
5900;SDS011;2976;49.764;9.796;2022-12-07T13:42:22;7.03;;;4.63;;
5900;SDS011;2976;49.764;9.796;2022-12-07T13:44:57;6.50;;;3.73;;
5900;SDS011;2976;49.764;9.796;2022-12-07T13:47:34;6.57;;;4.67;;
5900;SDS011;2976;49.764;9.796;2022-12-07T13:50:27;8.10;;;5.30;;
5900;SDS011;2976;49.764;9.796;2022-12-07T13:52:59;9.63;;;5.20;;
5900;SDS011;2976;49.764;9.796;2022-12-07T13:55:26;6.63;;;4.30;;
5900;SDS011;2976;49.764;9.796;2022-12-07T13:57:53;5.70;;;4.60;;
5900;SDS011;2976;49.764;9.796;2022-12-07T14:00:21;7.87;;;4.63;;
5900;SDS011;2976;49.764;9.796;2022-12-07T14:03:04;6.90;;;5.00;;
5900;SDS011;2976;49.764;9.796;2022-12-07T14:06:03;7.70;;;4.37;;
5900;SDS011;2976;49.764;9.796;2022-12-07T14:08:30;7.10;;;4.93;;
5900;SDS011;2976;49.764;9.796;2022-12-07T14:10:56;7.40;;;5.33;;
5900;SDS011;2976;49.764;9.796;2022-12-07T14:13:28;7.23;;;4.43;;
5900;SDS011;2976;49.764;9.796;2022-12-07T14:16:05;7.87;;;4.90;;
5900;SDS011;2976;49.764;9.796;2022-12-07T14:18:46;9.27;;;5.17;;
5900;SDS011;2976;49.764;9.796;2022-12-07T14:23:37;10.77;;;5.90;;
5900;SDS011;2976;49.764;9.796;2022-12-07T14:26:15;9.80;;;5.20;;
5900;SDS011;2976;49.764;9.796;2022-12-07T14:28:44;8.33;;;4.73;;
5900;SDS011;2976;49.764;9.796;2022-12-07T14:31:12;6.20;;;4.83;;
5900;SDS011;2976;49.764;9.796;2022-12-07T14:33:39;6.37;;;4.93;;
5900;SDS011;2976;49.764;9.796;2022-12-07T14:36:07;8.97;;;5.30;;
5900;SDS011;2976;49.764;9.796;2022-12-07T14:38:34;8.40;;;6.07;;
5900;SDS011;2976;49.764;9.796;2022-12-07T14:40:59;8.43;;;5.77;;
5900;SDS011;2976;49.764;9.796;2022-12-07T14:43:44;12.70;;;5.77;;
5900;SDS011;2976;49.764;9.796;2022-12-07T14:46:10;10.03;;;5.10;;
5900;SDS011;2976;49.764;9.796;2022-12-07T14:48:36;8.27;;;4.90;;
5900;SDS011;2976;49.764;9.796;2022-12-07T14:51:01;5.90;;;4.23;;
5900;SDS011;2976;49.764;9.796;2022-12-07T14:53:29;5.63;;;5.10;;
5900;SDS011;2976;49.764;9.796;2022-12-07T14:56:00;7.40;;;4.60;;
5900;SDS011;2976;49.764;9.796;2022-12-07T14:58:26;8.83;;;6.60;;
5900;SDS011;2976;49.764;9.796;2022-12-07T15:00:51;9.87;;;5.90;;
5900;SDS011;2976;49.764;9.796;2022-12-07T15:03:17;15.23;;;5.80;;
5900;SDS011;2976;49.764;9.796;2022-12-07T15:05:42;7.33;;;5.33;;
5900;SDS011;2976;49.764;9.796;2022-12-07T15:08:10;6.97;;;5.87;;
5900;SDS011;2976;49.764;9.796;2022-12-07T15:10:37;11.83;;;6.53;;
5900;SDS011;2976;49.764;9.796;2022-12-07T15:13:04;11.77;;;6.53;;
5900;SDS011;2976;49.764;9.796;2022-12-07T15:15:50;8.20;;;5.50;;
5900;SDS011;2976;49.764;9.796;2022-12-07T15:18:17;9.20;;;6.03;;
5900;SDS011;2976;49.764;9.796;2022-12-07T15:20:43;9.40;;;6.40;;
5900;SDS011;2976;49.764;9.796;2022-12-07T15:23:09;8.33;;;6.23;;
5900;SDS011;2976;49.764;9.796;2022-12-07T15:25:35;13.43;;;7.20;;
5900;SDS011;2976;49.764;9.796;2022-12-07T15:28:01;10.33;;;6.90;;
5900;SDS011;2976;49.764;9.796;2022-12-07T15:30:27;15.70;;;8.00;;
5900;SDS011;2976;49.764;9.796;2022-12-07T15:32:52;13.13;;;7.47;;
5900;SDS011;2976;49.764;9.796;2022-12-07T15:35:18;12.10;;;6.90;;
5900;SDS011;2976;49.764;9.796;2022-12-07T15:37:44;9.97;;;6.10;;
5900;SDS011;2976;49.764;9.796;2022-12-07T15:40:10;10.83;;;6.90;;
5900;SDS011;2976;49.764;9.796;2022-12-07T15:42:36;12.93;;;7.13;;
5900;SDS011;2976;49.764;9.796;2022-12-07T15:45:02;10.50;;;6.43;;
5900;SDS011;2976;49.764;9.796;2022-12-07T15:47:39;7.53;;;5.87;;
5900;SDS011;2976;49.764;9.796;2022-12-07T15:50:07;8.27;;;6.30;;
5900;SDS011;2976;49.764;9.796;2022-12-07T15:52:35;6.43;;;4.73;;
5900;SDS011;2976;49.764;9.796;2022-12-07T15:55:01;8.43;;;5.37;;
5900;SDS011;2976;49.764;9.796;2022-12-07T15:57:28;8.93;;;6.17;;
5900;SDS011;2976;49.764;9.796;2022-12-07T15:59:57;8.50;;;4.90;;
5900;SDS011;2976;49.764;9.796;2022-12-07T16:02:23;7.23;;;4.50;;
5900;SDS011;2976;49.764;9.796;2022-12-07T16:04:50;8.97;;;4.90;;
5900;SDS011;2976;49.764;9.796;2022-12-07T16:07:16;8.60;;;5.00;;
5900;SDS011;2976;49.764;9.796;2022-12-07T16:09:43;1.37;;;1.30;;
5900;SDS011;2976;49.764;9.796;2022-12-07T16:12:09;1.10;;;1.00;;
5900;SDS011;2976;49.764;9.796;2022-12-07T16:14:36;2.27;;;1.07;;
5900;SDS011;2976;49.764;9.796;2022-12-07T16:17:02;1.77;;;1.20;;
5900;SDS011;2976;49.764;9.796;2022-12-07T16:19:29;2.70;;;1.60;;
5900;SDS011;2976;49.764;9.796;2022-12-07T16:21:55;4.20;;;2.13;;
5900;SDS011;2976;49.764;9.796;2022-12-07T16:24:21;2.10;;;1.83;;
5900;SDS011;2976;49.764;9.796;2022-12-07T16:26:47;3.13;;;2.10;;
5900;SDS011;2976;49.764;9.796;2022-12-07T16:29:13;2.13;;;1.80;;
5900;SDS011;2976;49.764;9.796;2022-12-07T16:31:38;7.30;;;2.70;;
5900;SDS011;2976;49.764;9.796;2022-12-07T16:34:04;6.23;;;3.40;;
5900;SDS011;2976;49.764;9.796;2022-12-07T16:36:30;4.87;;;3.07;;
5900;SDS011;2976;49.764;9.796;2022-12-07T16:38:57;5.37;;;3.50;;
5900;SDS011;2976;49.764;9.796;2022-12-07T16:41:24;5.47;;;3.47;;
5900;SDS011;2976;49.764;9.796;2022-12-07T16:43:49;6.30;;;4.23;;
5900;SDS011;2976;49.764;9.796;2022-12-07T16:46:15;10.57;;;4.83;;
5900;SDS011;2976;49.764;9.796;2022-12-07T16:48:41;10.00;;;5.10;;
5900;SDS011;2976;49.764;9.796;2022-12-07T16:51:08;12.57;;;5.07;;
5900;SDS011;2976;49.764;9.796;2022-12-07T16:53:35;15.40;;;5.70;;
5900;SDS011;2976;49.764;9.796;2022-12-07T16:56:02;17.67;;;5.47;;
5900;SDS011;2976;49.764;9.796;2022-12-07T16:58:28;13.50;;;6.27;;
5900;SDS011;2976;49.764;9.796;2022-12-07T17:00:55;11.83;;;6.67;;
5900;SDS011;2976;49.764;9.796;2022-12-07T17:03:20;8.43;;;5.30;;
5900;SDS011;2976;49.764;9.796;2022-12-07T17:05:46;15.23;;;6.63;;
5900;SDS011;2976;49.764;9.796;2022-12-07T17:08:12;9.30;;;5.77;;
5900;SDS011;2976;49.764;9.796;2022-12-07T17:10:39;12.80;;;5.83;;
5900;SDS011;2976;49.764;9.796;2022-12-07T17:13:08;18.00;;;5.47;;